sensor_id;sensor_type;location;lat;lon;timestamp;P1;durP1;ratioP1;P2;durP2;ratioP2
7128;SDS011;3606;52.930;8.644;2023-10-19T00:02:07;18.23;;;12.30;;
7128;SDS011;3606;52.930;8.644;2023-10-19T00:04:33;23.27;;;12.53;;
7128;SDS011;3606;52.930;8.644;2023-10-19T00:07:04;17.03;;;12.50;;
7128;SDS011;3606;52.930;8.644;2023-10-19T00:09:30;17.80;;;12.90;;
7128;SDS011;3606;52.930;8.644;2023-10-19T00:12:01;18.73;;;13.07;;
7128;SDS011;3606;52.930;8.644;2023-10-19T00:14:27;16.93;;;11.83;;
7128;SDS011;3606;52.930;8.644;2023-10-19T00:16:53;17.93;;;12.67;;
7128;SDS011;3606;52.930;8.644;2023-10-19T00:19:24;21.53;;;13.97;;
7128;SDS011;3606;52.930;8.644;2023-10-19T00:21:52;19.33;;;12.83;;
7128;SDS011;3606;52.930;8.644;2023-10-19T00:24:34;20.70;;;13.07;;
7128;SDS011;3606;52.930;8.644;2023-10-19T00:27:00;17.87;;;13.70;;
7128;SDS011;3606;52.930;8.644;2023-10-19T00:29:43;21.70;;;13.20;;
7128;SDS011;3606;52.930;8.644;2023-10-19T00:32:14;20.57;;;12.97;;
7128;SDS011;3606;52.930;8.644;2023-10-19T00:34:41;19.13;;;13.57;;
7128;SDS011;3606;52.930;8.644;2023-10-19T00:37:15;18.20;;;13.03;;
7128;SDS011;3606;52.930;8.644;2023-10-19T00:39:44;16.23;;;13.07;;
7128;SDS011;3606;52.930;8.644;2023-10-19T00:42:15;18.93;;;13.50;;
7128;SDS011;3606;52.930;8.644;2023-10-19T00:44:45;20.80;;;13.37;;
7128;SDS011;3606;52.930;8.644;2023-10-19T00:47:15;18.97;;;13.80;;
7128;SDS011;3606;52.930;8.644;2023-10-19T00:49:44;22.40;;;14.37;;
7128;SDS011;3606;52.930;8.644;2023-10-19T00:52:11;21.00;;;14.63;;
7128;SDS011;3606;52.930;8.644;2023-10-19T00:54:44;21.47;;;14.97;;
7128;SDS011;3606;52.930;8.644;2023-10-19T00:57:16;19.93;;;14.40;;
7128;SDS011;3606;52.930;8.644;2023-10-19T00:59:46;22.53;;;15.03;;
7128;SDS011;3606;52.930;8.644;2023-10-19T01:02:19;21.90;;;14.00;;
7128;SDS011;3606;52.930;8.644;2023-10-19T01:04:50;19.03;;;14.27;;
7128;SDS011;3606;52.930;8.644;2023-10-19T01:07:21;22.20;;;15.20;;
7128;SDS011;3606;52.930;8.644;2023-10-19T01:09:58;21.47;;;14.97;;
7128;SDS011;3606;52.930;8.644;2023-10-19T01:12:25;21.63;;;15.07;;
7128;SDS011;3606;52.930;8.644;2023-10-19T01:17:30;21.30;;;15.60;;
7128;SDS011;3606;52.930;8.644;2023-10-19T01:19:58;22.30;;;15.67;;
7128;SDS011;3606;52.930;8.644;2023-10-19T01:22:24;25.63;;;16.03;;
7128;SDS011;3606;52.930;8.644;2023-10-19T01:24:51;23.27;;;17.23;;
7128;SDS011;3606;52.930;8.644;2023-10-19T01:27:18;23.00;;;15.67;;
7128;SDS011;3606;52.930;8.644;2023-10-19T01:29:44;26.53;;;16.53;;
7128;SDS011;3606;52.930;8.644;2023-10-19T01:32:11;21.33;;;16.13;;
7128;SDS011;3606;52.930;8.644;2023-10-19T01:34:40;22.97;;;17.03;;
7128;SDS011;3606;52.930;8.644;2023-10-19T01:37:05;21.67;;;16.67;;
7128;SDS011;3606;52.930;8.644;2023-10-19T01:39:31;22.93;;;16.43;;
7128;SDS011;3606;52.930;8.644;2023-10-19T01:42:00;24.87;;;17.20;;
7128;SDS011;3606;52.930;8.644;2023-10-19T01:44:26;26.30;;;17.70;;
7128;SDS011;3606;52.930;8.644;2023-10-19T01:46:52;28.67;;;17.50;;
7128;SDS011;3606;52.930;8.644;2023-10-19T01:49:18;25.27;;;18.50;;
7128;SDS011;3606;52.930;8.644;2023-10-19T01:51:53;25.57;;;17.40;;
7128;SDS011;3606;52.930;8.644;2023-10-19T01:54:20;25.43;;;16.73;;
7128;SDS011;3606;52.930;8.644;2023-10-19T01:56:52;26.10;;;18.90;;
7128;SDS011;3606;52.930;8.644;2023-10-19T01:59:24;25.03;;;16.47;;
7128;SDS011;3606;52.930;8.644;2023-10-19T02:01:55;24.83;;;17.70;;
7128;SDS011;3606;52.930;8.644;2023-10-19T02:04:22;24.33;;;17.53;;
7128;SDS011;3606;52.930;8.644;2023-10-19T02:06:48;26.87;;;17.77;;
7128;SDS011;3606;52.930;8.644;2023-10-19T02:09:16;23.13;;;17.40;;
7128;SDS011;3606;52.930;8.644;2023-10-19T02:11:42;26.70;;;18.60;;
7128;SDS011;3606;52.930;8.644;2023-10-19T02:14:12;27.67;;;17.73;;
7128;SDS011;3606;52.930;8.644;2023-10-19T02:19:08;27.00;;;16.87;;
7128;SDS011;3606;52.930;8.644;2023-10-19T02:21:34;25.43;;;17.60;;
7128;SDS011;3606;52.930;8.644;2023-10-19T02:24:05;24.13;;;17.87;;
7128;SDS011;3606;52.930;8.644;2023-10-19T02:26:34;23.47;;;17.03;;
7128;SDS011;3606;52.930;8.644;2023-10-19T02:29:02;28.17;;;17.87;;
7128;SDS011;3606;52.930;8.644;2023-10-19T02:31:33;25.77;;;17.87;;
7128;SDS011;3606;52.930;8.644;2023-10-19T02:33:59;26.73;;;17.70;;
7128;SDS011;3606;52.930;8.644;2023-10-19T02:36:25;31.10;;;18.17;;
7128;SDS011;3606;52.930;8.644;2023-10-19T02:38:58;23.67;;;17.47;;
7128;SDS011;3606;52.930;8.644;2023-10-19T02:41:25;28.23;;;18.37;;
7128;SDS011;3606;52.930;8.644;2023-10-19T02:43:55;24.20;;;17.53;;
7128;SDS011;3606;52.930;8.644;2023-10-19T02:46:33;26.83;;;17.97;;
7128;SDS011;3606;52.930;8.644;2023-10-19T02:49:03;24.27;;;17.57;;
7128;SDS011;3606;52.930;8.644;2023-10-19T02:51:32;25.83;;;17.57;;
7128;SDS011;3606;52.930;8.644;2023-10-19T02:53:58;25.27;;;17.37;;
7128;SDS011;3606;52.930;8.644;2023-10-19T02:56:27;25.57;;;17.50;;
7128;SDS011;3606;52.930;8.644;2023-10-19T02:58:55;28.60;;;18.43;;
7128;SDS011;3606;52.930;8.644;2023-10-19T03:01:26;25.00;;;17.23;;
7128;SDS011;3606;52.930;8.644;2023-10-19T03:03:56;26.17;;;17.90;;
7128;SDS011;3606;52.930;8.644;2023-10-19T03:06:29;30.43;;;17.87;;
7128;SDS011;3606;52.930;8.644;2023-10-19T03:08:59;23.20;;;17.27;;
7128;SDS011;3606;52.930;8.644;2023-10-19T03:11:29;24.53;;;17.20;;
7128;SDS011;3606;52.930;8.644;2023-10-19T03:13:57;28.23;;;19.30;;
7128;SDS011;3606;52.930;8.644;2023-10-19T03:16:23;24.70;;;17.47;;
7128;SDS011;3606;52.930;8.644;2023-10-19T03:18:49;23.70;;;17.03;;
7128;SDS011;3606;52.930;8.644;2023-10-19T03:21:19;29.90;;;17.93;;
7128;SDS011;3606;52.930;8.644;2023-10-19T03:23:51;26.43;;;17.37;;
7128;SDS011;3606;52.930;8.644;2023-10-19T03:26:18;24.93;;;17.93;;
7128;SDS011;3606;52.930;8.644;2023-10-19T03:28:43;28.57;;;19.03;;
7128;SDS011;3606;52.930;8.644;2023-10-19T03:31:10;25.60;;;18.03;;
7128;SDS011;3606;52.930;8.644;2023-10-19T03:33:43;26.27;;;18.60;;
7128;SDS011;3606;52.930;8.644;2023-10-19T03:36:09;28.00;;;18.23;;
7128;SDS011;3606;52.930;8.644;2023-10-19T03:38:38;23.90;;;18.00;;
7128;SDS011;3606;52.930;8.644;2023-10-19T03:41:05;27.90;;;18.93;;
7128;SDS011;3606;52.930;8.644;2023-10-19T03:43:33;27.80;;;17.20;;
7128;SDS011;3606;52.930;8.644;2023-10-19T03:46:01;29.27;;;17.80;;
7128;SDS011;3606;52.930;8.644;2023-10-19T03:48:31;25.73;;;18.40;;
7128;SDS011;3606;52.930;8.644;2023-10-19T03:51:02;24.83;;;17.47;;
7128;SDS011;3606;52.930;8.644;2023-10-19T03:53:28;26.83;;;18.87;;
7128;SDS011;3606;52.930;8.644;2023-10-19T03:55:55;25.33;;;17.07;;
7128;SDS011;3606;52.930;8.644;2023-10-19T03:58:21;27.23;;;18.10;;
7128;SDS011;3606;52.930;8.644;2023-10-19T04:00:47;28.10;;;18.20;;
7128;SDS011;3606;52.930;8.644;2023-10-19T04:03:16;27.07;;;17.80;;
7128;SDS011;3606;52.930;8.644;2023-10-19T04:05:42;27.60;;;18.67;;
7128;SDS011;3606;52.930;8.644;2023-10-19T04:08:12;26.90;;;17.47;;
7128;SDS011;3606;52.930;8.644;2023-10-19T04:10:41;25.23;;;17.17;;
7128;SDS011;3606;52.930;8.644;2023-10-19T04:13:32;25.03;;;16.03;;
7128;SDS011;3606;52.930;8.644;2023-10-19T04:15:57;22.97;;;16.27;;
7128;SDS011;3606;52.930;8.644;2023-10-19T04:18:23;22.97;;;15.57;;
7128;SDS011;3606;52.930;8.644;2023-10-19T04:20:50;23.77;;;16.13;;
7128;SDS011;3606;52.930;8.644;2023-10-19T04:23:19;22.50;;;14.73;;
7128;SDS011;3606;52.930;8.644;2023-10-19T04:25:50;18.93;;;14.87;;
7128;SDS011;3606;52.930;8.644;2023-10-19T04:28:16;20.47;;;13.77;;
7128;SDS011;3606;52.930;8.644;2023-10-19T04:30:55;20.97;;;15.03;;
7128;SDS011;3606;52.930;8.644;2023-10-19T04:33:21;18.07;;;13.90;;
7128;SDS011;3606;52.930;8.644;2023-10-19T04:35:50;19.23;;;13.33;;
7128;SDS011;3606;52.930;8.644;2023-10-19T04:38:20;18.90;;;14.17;;
7128;SDS011;3606;52.930;8.644;2023-10-19T04:40:49;18.13;;;13.50;;
7128;SDS011;3606;52.930;8.644;2023-10-19T04:43:15;16.60;;;12.83;;
7128;SDS011;3606;52.930;8.644;2023-10-19T04:45:41;18.77;;;13.33;;
7128;SDS011;3606;52.930;8.644;2023-10-19T04:48:09;22.73;;;14.60;;
7128;SDS011;3606;52.930;8.644;2023-10-19T04:50:35;19.40;;;13.77;;
7128;SDS011;3606;52.930;8.644;2023-10-19T04:53:01;16.60;;;12.87;;
7128;SDS011;3606;52.930;8.644;2023-10-19T04:55:27;18.00;;;13.67;;
7128;SDS011;3606;52.930;8.644;2023-10-19T04:57:55;17.67;;;13.93;;
7128;SDS011;3606;52.930;8.644;2023-10-19T05:00:22;18.67;;;13.13;;
7128;SDS011;3606;52.930;8.644;2023-10-19T05:02:49;18.53;;;13.80;;
7128;SDS011;3606;52.930;8.644;2023-10-19T05:05:17;18.37;;;13.20;;
7128;SDS011;3606;52.930;8.644;2023-10-19T05:07:43;17.73;;;13.17;;
7128;SDS011;3606;52.930;8.644;2023-10-19T05:10:09;18.53;;;12.93;;
7128;SDS011;3606;52.930;8.644;2023-10-19T05:12:36;17.53;;;13.50;;
7128;SDS011;3606;52.930;8.644;2023-10-19T05:15:01;20.07;;;13.70;;
7128;SDS011;3606;52.930;8.644;2023-10-19T05:17:27;17.90;;;13.13;;
7128;SDS011;3606;52.930;8.644;2023-10-19T05:19:53;18.87;;;13.50;;
7128;SDS011;3606;52.930;8.644;2023-10-19T05:22:18;20.83;;;13.20;;
7128;SDS011;3606;52.930;8.644;2023-10-19T05:24:44;16.43;;;12.03;;
7128;SDS011;3606;52.930;8.644;2023-10-19T05:27:10;17.43;;;11.60;;
7128;SDS011;3606;52.930;8.644;2023-10-19T05:29:37;13.60;;;11.27;;
7128;SDS011;3606;52.930;8.644;2023-10-19T05:32:03;17.80;;;12.00;;
7128;SDS011;3606;52.930;8.644;2023-10-19T05:34:29;15.17;;;11.10;;
7128;SDS011;3606;52.930;8.644;2023-10-19T05:36:57;14.80;;;11.37;;
7128;SDS011;3606;52.930;8.644;2023-10-19T05:39:27;13.10;;;10.90;;
7128;SDS011;3606;52.930;8.644;2023-10-19T05:41:56;16.90;;;10.97;;
7128;SDS011;3606;52.930;8.644;2023-10-19T05:44:25;16.03;;;10.60;;
7128;SDS011;3606;52.930;8.644;2023-10-19T05:46:51;16.03;;;11.20;;
7128;SDS011;3606;52.930;8.644;2023-10-19T05:49:17;14.40;;;10.53;;
7128;SDS011;3606;52.930;8.644;2023-10-19T05:51:43;12.57;;;9.83;;
7128;SDS011;3606;52.930;8.644;2023-10-19T05:54:09;12.67;;;10.07;;
7128;SDS011;3606;52.930;8.644;2023-10-19T05:56:35;12.90;;;9.67;;
7128;SDS011;3606;52.930;8.644;2023-10-19T05:59:01;12.17;;;9.97;;
7128;SDS011;3606;52.930;8.644;2023-10-19T06:01:27;13.33;;;9.80;;
7128;SDS011;3606;52.930;8.644;2023-10-19T06:03:53;12.17;;;9.63;;
7128;SDS011;3606;52.930;8.644;2023-10-19T06:06:21;11.87;;;9.63;;
7128;SDS011;3606;52.930;8.644;2023-10-19T06:08:48;12.30;;;9.13;;
7128;SDS011;3606;52.930;8.644;2023-10-19T06:11:18;14.03;;;9.50;;
7128;SDS011;3606;52.930;8.644;2023-10-19T06:13:44;13.33;;;9.83;;
7128;SDS011;3606;52.930;8.644;2023-10-19T06:16:09;12.60;;;9.43;;
7128;SDS011;3606;52.930;8.644;2023-10-19T06:18:35;12.60;;;9.30;;
7128;SDS011;3606;52.930;8.644;2023-10-19T06:21:00;12.60;;;9.70;;
7128;SDS011;3606;52.930;8.644;2023-10-19T06:23:26;12.73;;;9.50;;
7128;SDS011;3606;52.930;8.644;2023-10-19T06:25:52;11.30;;;8.67;;
7128;SDS011;3606;52.930;8.644;2023-10-19T06:28:17;10.43;;;8.47;;
7128;SDS011;3606;52.930;8.644;2023-10-19T06:30:43;10.43;;;8.83;;
7128;SDS011;3606;52.930;8.644;2023-10-19T06:33:08;12.80;;;8.67;;
7128;SDS011;3606;52.930;8.644;2023-10-19T06:35:34;11.03;;;8.53;;
7128;SDS011;3606;52.930;8.644;2023-10-19T06:38:02;10.80;;;8.90;;
7128;SDS011;3606;52.930;8.644;2023-10-19T06:40:34;11.53;;;8.30;;
7128;SDS011;3606;52.930;8.644;2023-10-19T06:43:03;11.50;;;8.40;;
7128;SDS011;3606;52.930;8.644;2023-10-19T06:45:30;10.20;;;8.23;;
7128;SDS011;3606;52.930;8.644;2023-10-19T06:47:56;9.97;;;8.07;;
7128;SDS011;3606;52.930;8.644;2023-10-19T06:50:23;11.10;;;8.17;;
7128;SDS011;3606;52.930;8.644;2023-10-19T06:52:49;9.77;;;8.23;;
7128;SDS011;3606;52.930;8.644;2023-10-19T06:55:16;11.40;;;8.53;;
7128;SDS011;3606;52.930;8.644;2023-10-19T06:57:44;10.03;;;8.30;;
7128;SDS011;3606;52.930;8.644;2023-10-19T07:00:15;11.13;;;8.43;;
7128;SDS011;3606;52.930;8.644;2023-10-19T07:02:44;10.77;;;8.97;;
7128;SDS011;3606;52.930;8.644;2023-10-19T07:05:20;10.80;;;8.00;;
7128;SDS011;3606;52.930;8.644;2023-10-19T07:07:48;10.17;;;8.50;;
7128;SDS011;3606;52.930;8.644;2023-10-19T07:10:16;10.40;;;8.57;;
7128;SDS011;3606;52.930;8.644;2023-10-19T07:12:43;9.37;;;7.77;;
7128;SDS011;3606;52.930;8.644;2023-10-19T07:15:11;10.07;;;7.67;;
7128;SDS011;3606;52.930;8.644;2023-10-19T07:17:39;9.47;;;7.77;;
7128;SDS011;3606;52.930;8.644;2023-10-19T07:20:05;11.73;;;8.17;;
7128;SDS011;3606;52.930;8.644;2023-10-19T07:22:33;8.80;;;7.40;;
7128;SDS011;3606;52.930;8.644;2023-10-19T07:24:58;11.07;;;8.07;;
7128;SDS011;3606;52.930;8.644;2023-10-19T07:27:25;9.93;;;7.47;;
7128;SDS011;3606;52.930;8.644;2023-10-19T07:29:53;10.13;;;7.60;;
7128;SDS011;3606;52.930;8.644;2023-10-19T07:32:19;7.80;;;6.53;;
7128;SDS011;3606;52.930;8.644;2023-10-19T07:34:44;9.50;;;7.17;;
7128;SDS011;3606;52.930;8.644;2023-10-19T07:37:10;7.00;;;6.27;;
7128;SDS011;3606;52.930;8.644;2023-10-19T07:39:49;9.83;;;7.20;;
7128;SDS011;3606;52.930;8.644;2023-10-19T07:42:17;8.00;;;6.90;;
7128;SDS011;3606;52.930;8.644;2023-10-19T07:44:43;6.97;;;6.03;;
7128;SDS011;3606;52.930;8.644;2023-10-19T07:47:09;6.60;;;6.00;;
7128;SDS011;3606;52.930;8.644;2023-10-19T07:49:37;6.73;;;6.00;;
7128;SDS011;3606;52.930;8.644;2023-10-19T07:52:05;7.13;;;5.90;;
7128;SDS011;3606;52.930;8.644;2023-10-19T07:54:36;6.37;;;5.67;;
7128;SDS011;3606;52.930;8.644;2023-10-19T07:57:02;7.10;;;5.70;;
7128;SDS011;3606;52.930;8.644;2023-10-19T07:59:33;5.73;;;5.13;;
7128;SDS011;3606;52.930;8.644;2023-10-19T08:01:59;6.97;;;5.77;;
7128;SDS011;3606;52.930;8.644;2023-10-19T08:04:29;6.23;;;5.63;;
7128;SDS011;3606;52.930;8.644;2023-10-19T08:06:55;7.07;;;5.67;;
7128;SDS011;3606;52.930;8.644;2023-10-19T08:09:24;7.37;;;5.83;;
7128;SDS011;3606;52.930;8.644;2023-10-19T08:11:51;6.13;;;5.43;;
7128;SDS011;3606;52.930;8.644;2023-10-19T08:14:24;6.93;;;5.77;;
7128;SDS011;3606;52.930;8.644;2023-10-19T08:16:51;6.67;;;5.23;;
7128;SDS011;3606;52.930;8.644;2023-10-19T08:19:17;6.00;;;5.30;;
7128;SDS011;3606;52.930;8.644;2023-10-19T08:21:43;5.97;;;5.13;;
7128;SDS011;3606;52.930;8.644;2023-10-19T08:24:09;6.83;;;5.23;;
7128;SDS011;3606;52.930;8.644;2023-10-19T08:26:39;6.17;;;5.40;;
7128;SDS011;3606;52.930;8.644;2023-10-19T08:29:06;5.83;;;5.07;;
7128;SDS011;3606;52.930;8.644;2023-10-19T08:31:38;5.03;;;4.53;;
7128;SDS011;3606;52.930;8.644;2023-10-19T08:34:07;7.87;;;5.33;;
7128;SDS011;3606;52.930;8.644;2023-10-19T08:36:40;6.07;;;4.90;;
7128;SDS011;3606;52.930;8.644;2023-10-19T08:39:07;5.63;;;4.90;;
7128;SDS011;3606;52.930;8.644;2023-10-19T08:41:34;5.97;;;4.70;;
7128;SDS011;3606;52.930;8.644;2023-10-19T08:44:03;4.80;;;4.23;;
7128;SDS011;3606;52.930;8.644;2023-10-19T08:46:40;5.57;;;4.93;;
7128;SDS011;3606;52.930;8.644;2023-10-19T08:49:13;7.93;;;4.50;;
7128;SDS011;3606;52.930;8.644;2023-10-19T08:51:43;6.30;;;4.73;;
7128;SDS011;3606;52.930;8.644;2023-10-19T08:54:10;5.30;;;4.77;;
7128;SDS011;3606;52.930;8.644;2023-10-19T08:56:37;4.87;;;4.40;;
7128;SDS011;3606;52.930;8.644;2023-10-19T08:59:04;4.97;;;4.33;;
7128;SDS011;3606;52.930;8.644;2023-10-19T09:01:31;4.97;;;4.40;;
7128;SDS011;3606;52.930;8.644;2023-10-19T09:04:00;4.67;;;4.13;;
7128;SDS011;3606;52.930;8.644;2023-10-19T09:06:27;4.23;;;3.70;;
7128;SDS011;3606;52.930;8.644;2023-10-19T09:08:54;4.70;;;4.20;;
7128;SDS011;3606;52.930;8.644;2023-10-19T09:11:20;5.53;;;4.27;;
7128;SDS011;3606;52.930;8.644;2023-10-19T09:13:47;5.80;;;4.73;;
7128;SDS011;3606;52.930;8.644;2023-10-19T09:16:14;5.67;;;4.50;;
7128;SDS011;3606;52.930;8.644;2023-10-19T09:18:41;4.30;;;3.80;;
7128;SDS011;3606;52.930;8.644;2023-10-19T09:21:07;4.80;;;3.93;;
7128;SDS011;3606;52.930;8.644;2023-10-19T09:23:36;4.60;;;3.80;;
7128;SDS011;3606;52.930;8.644;2023-10-19T09:26:02;5.07;;;4.57;;
7128;SDS011;3606;52.930;8.644;2023-10-19T09:28:28;4.30;;;3.90;;
7128;SDS011;3606;52.930;8.644;2023-10-19T09:30:54;4.50;;;3.77;;
7128;SDS011;3606;52.930;8.644;2023-10-19T09:33:21;5.80;;;4.53;;
7128;SDS011;3606;52.930;8.644;2023-10-19T09:35:49;5.17;;;3.57;;
7128;SDS011;3606;52.930;8.644;2023-10-19T09:38:19;4.20;;;3.80;;
7128;SDS011;3606;52.930;8.644;2023-10-19T09:40:49;3.77;;;3.30;;
7128;SDS011;3606;52.930;8.644;2023-10-19T09:43:16;4.00;;;3.60;;
7128;SDS011;3606;52.930;8.644;2023-10-19T09:45:57;4.00;;;3.60;;
7128;SDS011;3606;52.930;8.644;2023-10-19T09:48:26;4.63;;;4.13;;
7128;SDS011;3606;52.930;8.644;2023-10-19T09:50:55;4.30;;;3.60;;
7128;SDS011;3606;52.930;8.644;2023-10-19T09:53:25;4.57;;;4.00;;
7128;SDS011;3606;52.930;8.644;2023-10-19T09:55:53;4.27;;;3.87;;
7128;SDS011;3606;52.930;8.644;2023-10-19T09:58:27;4.10;;;3.70;;
7128;SDS011;3606;52.930;8.644;2023-10-19T10:00:56;5.23;;;4.17;;
7128;SDS011;3606;52.930;8.644;2023-10-19T10:06:09;4.30;;;3.90;;
7128;SDS011;3606;52.930;8.644;2023-10-19T10:08:40;4.40;;;4.00;;
7128;SDS011;3606;52.930;8.644;2023-10-19T10:11:13;5.13;;;4.63;;
7128;SDS011;3606;52.930;8.644;2023-10-19T10:13:41;5.90;;;4.70;;
7128;SDS011;3606;52.930;8.644;2023-10-19T10:16:09;5.67;;;5.10;;
7128;SDS011;3606;52.930;8.644;2023-10-19T10:18:39;5.30;;;4.80;;
7128;SDS011;3606;52.930;8.644;2023-10-19T10:23:56;5.60;;;5.10;;
7128;SDS011;3606;52.930;8.644;2023-10-19T10:26:24;6.33;;;4.93;;
7128;SDS011;3606;52.930;8.644;2023-10-19T10:31:48;5.77;;;5.17;;
7128;SDS011;3606;52.930;8.644;2023-10-19T10:37:05;6.63;;;5.93;;
7128;SDS011;3606;52.930;8.644;2023-10-19T10:39:38;6.20;;;5.30;;
7128;SDS011;3606;52.930;8.644;2023-10-19T10:42:06;7.87;;;5.50;;
7128;SDS011;3606;52.930;8.644;2023-10-19T10:47:30;7.07;;;6.13;;
7128;SDS011;3606;52.930;8.644;2023-10-19T10:49:57;5.80;;;5.23;;
7128;SDS011;3606;52.930;8.644;2023-10-19T10:54:50;7.00;;;6.10;;
7128;SDS011;3606;52.930;8.644;2023-10-19T10:57:15;6.03;;;5.43;;
7128;SDS011;3606;52.930;8.644;2023-10-19T10:59:41;7.13;;;6.30;;
7128;SDS011;3606;52.930;8.644;2023-10-19T11:02:19;6.13;;;5.53;;
7128;SDS011;3606;52.930;8.644;2023-10-19T11:04:46;6.27;;;5.67;;
7128;SDS011;3606;52.930;8.644;2023-10-19T11:07:19;5.70;;;5.10;;
7128;SDS011;3606;52.930;8.644;2023-10-19T11:09:46;6.27;;;5.40;;
7128;SDS011;3606;52.930;8.644;2023-10-19T11:12:12;5.33;;;4.83;;
7128;SDS011;3606;52.930;8.644;2023-10-19T11:14:57;5.93;;;5.27;;
7128;SDS011;3606;52.930;8.644;2023-10-19T11:17:41;6.20;;;5.60;;
7128;SDS011;3606;52.930;8.644;2023-10-19T11:20:08;5.57;;;5.00;;
7128;SDS011;3606;52.930;8.644;2023-10-19T11:22:44;6.10;;;5.50;;
7128;SDS011;3606;52.930;8.644;2023-10-19T11:25:20;5.77;;;5.13;;
7128;SDS011;3606;52.930;8.644;2023-10-19T11:27:53;5.63;;;5.03;;
7128;SDS011;3606;52.930;8.644;2023-10-19T11:30:25;6.57;;;5.40;;
7128;SDS011;3606;52.930;8.644;2023-10-19T11:32:53;5.50;;;4.90;;
7128;SDS011;3606;52.930;8.644;2023-10-19T11:35:23;7.73;;;5.50;;
7128;SDS011;3606;52.930;8.644;2023-10-19T11:37:55;6.17;;;5.57;;
7128;SDS011;3606;52.930;8.644;2023-10-19T11:40:25;6.07;;;5.37;;
7128;SDS011;3606;52.930;8.644;2023-10-19T11:42:52;8.00;;;5.50;;
7128;SDS011;3606;52.930;8.644;2023-10-19T11:45:21;6.47;;;5.67;;
7128;SDS011;3606;52.930;8.644;2023-10-19T11:47:48;6.10;;;5.50;;
7128;SDS011;3606;52.930;8.644;2023-10-19T11:50:15;5.60;;;5.00;;
7128;SDS011;3606;52.930;8.644;2023-10-19T11:52:43;7.67;;;6.07;;
7128;SDS011;3606;52.930;8.644;2023-10-19T11:55:08;5.50;;;5.00;;
7128;SDS011;3606;52.930;8.644;2023-10-19T11:57:34;6.00;;;5.33;;
7128;SDS011;3606;52.930;8.644;2023-10-19T12:00:02;6.27;;;5.27;;
7128;SDS011;3606;52.930;8.644;2023-10-19T12:02:33;6.57;;;5.50;;
7128;SDS011;3606;52.930;8.644;2023-10-19T12:05:02;5.37;;;4.87;;
7128;SDS011;3606;52.930;8.644;2023-10-19T12:07:35;5.87;;;5.33;;
7128;SDS011;3606;52.930;8.644;2023-10-19T12:10:07;5.33;;;4.83;;
7128;SDS011;3606;52.930;8.644;2023-10-19T12:12:34;5.47;;;4.83;;
7128;SDS011;3606;52.930;8.644;2023-10-19T12:15:01;5.03;;;4.63;;
7128;SDS011;3606;52.930;8.644;2023-10-19T12:17:27;10.13;;;7.70;;
7128;SDS011;3606;52.930;8.644;2023-10-19T12:19:54;4.93;;;4.40;;
7128;SDS011;3606;52.930;8.644;2023-10-19T12:22:20;4.97;;;4.47;;
7128;SDS011;3606;52.930;8.644;2023-10-19T12:24:46;8.33;;;5.07;;
7128;SDS011;3606;52.930;8.644;2023-10-19T12:27:13;4.90;;;4.40;;
7128;SDS011;3606;52.930;8.644;2023-10-19T12:29:39;5.37;;;4.87;;
7128;SDS011;3606;52.930;8.644;2023-10-19T12:32:05;5.17;;;4.67;;
7128;SDS011;3606;52.930;8.644;2023-10-19T12:34:31;5.17;;;4.67;;
7128;SDS011;3606;52.930;8.644;2023-10-19T12:36:58;5.13;;;4.63;;
7128;SDS011;3606;52.930;8.644;2023-10-19T12:39:24;5.20;;;4.70;;
7128;SDS011;3606;52.930;8.644;2023-10-19T12:42:07;4.80;;;4.20;;
7128;SDS011;3606;52.930;8.644;2023-10-19T12:44:33;5.20;;;4.70;;
7128;SDS011;3606;52.930;8.644;2023-10-19T12:47:04;4.77;;;4.33;;
7128;SDS011;3606;52.930;8.644;2023-10-19T12:49:34;4.77;;;4.10;;
7128;SDS011;3606;52.930;8.644;2023-10-19T12:52:00;4.33;;;3.93;;
7128;SDS011;3606;52.930;8.644;2023-10-19T12:54:28;5.77;;;4.80;;
7128;SDS011;3606;52.930;8.644;2023-10-19T12:56:54;5.10;;;4.63;;
7128;SDS011;3606;52.930;8.644;2023-10-19T12:59:20;5.40;;;4.77;;
7128;SDS011;3606;52.930;8.644;2023-10-19T13:01:46;4.80;;;4.20;;
7128;SDS011;3606;52.930;8.644;2023-10-19T13:04:14;4.60;;;4.20;;
7128;SDS011;3606;52.930;8.644;2023-10-19T13:06:43;4.83;;;4.33;;
7128;SDS011;3606;52.930;8.644;2023-10-19T13:09:10;10.70;;;4.00;;
7128;SDS011;3606;52.930;8.644;2023-10-19T13:11:36;4.97;;;4.23;;
7128;SDS011;3606;52.930;8.644;2023-10-19T13:14:03;4.50;;;4.10;;
7128;SDS011;3606;52.930;8.644;2023-10-19T13:16:31;4.53;;;4.03;;
7128;SDS011;3606;52.930;8.644;2023-10-19T13:18:57;5.17;;;4.67;;
7128;SDS011;3606;52.930;8.644;2023-10-19T13:21:22;5.93;;;3.57;;
7128;SDS011;3606;52.930;8.644;2023-10-19T13:23:52;5.53;;;4.20;;
7128;SDS011;3606;52.930;8.644;2023-10-19T13:26:18;5.40;;;4.80;;
7128;SDS011;3606;52.930;8.644;2023-10-19T13:28:44;6.07;;;4.93;;
7128;SDS011;3606;52.930;8.644;2023-10-19T13:31:10;5.60;;;4.67;;
7128;SDS011;3606;52.930;8.644;2023-10-19T13:33:38;5.50;;;4.57;;
7128;SDS011;3606;52.930;8.644;2023-10-19T13:36:06;5.77;;;4.80;;
7128;SDS011;3606;52.930;8.644;2023-10-19T13:38:32;5.90;;;5.20;;
7128;SDS011;3606;52.930;8.644;2023-10-19T13:40:58;5.93;;;5.30;;
7128;SDS011;3606;52.930;8.644;2023-10-19T13:43:23;7.17;;;6.00;;
7128;SDS011;3606;52.930;8.644;2023-10-19T13:45:49;7.47;;;5.70;;
7128;SDS011;3606;52.930;8.644;2023-10-19T13:48:18;6.13;;;5.53;;
7128;SDS011;3606;52.930;8.644;2023-10-19T13:50:45;6.30;;;5.67;;
7128;SDS011;3606;52.930;8.644;2023-10-19T13:53:17;7.23;;;5.80;;
7128;SDS011;3606;52.930;8.644;2023-10-19T13:55:43;8.63;;;6.60;;
7128;SDS011;3606;52.930;8.644;2023-10-19T13:58:09;6.93;;;5.57;;
7128;SDS011;3606;52.930;8.644;2023-10-19T14:00:36;8.17;;;6.10;;
7128;SDS011;3606;52.930;8.644;2023-10-19T14:03:04;9.43;;;6.43;;
7128;SDS011;3606;52.930;8.644;2023-10-19T14:05:40;7.63;;;6.17;;
7128;SDS011;3606;52.930;8.644;2023-10-19T14:08:13;8.93;;;6.37;;
7128;SDS011;3606;52.930;8.644;2023-10-19T14:10:39;7.43;;;5.83;;
7128;SDS011;3606;52.930;8.644;2023-10-19T14:13:08;8.83;;;6.30;;
7128;SDS011;3606;52.930;8.644;2023-10-19T14:15:34;10.10;;;7.00;;
7128;SDS011;3606;52.930;8.644;2023-10-19T14:18:00;7.57;;;6.70;;
7128;SDS011;3606;52.930;8.644;2023-10-19T14:20:27;10.03;;;6.60;;
7128;SDS011;3606;52.930;8.644;2023-10-19T14:22:54;9.77;;;7.90;;
7128;SDS011;3606;52.930;8.644;2023-10-19T14:25:23;11.70;;;8.00;;
7128;SDS011;3606;52.930;8.644;2023-10-19T14:27:49;11.40;;;7.87;;
7128;SDS011;3606;52.930;8.644;2023-10-19T14:30:17;13.13;;;9.10;;
7128;SDS011;3606;52.930;8.644;2023-10-19T14:32:46;11.17;;;8.30;;
7128;SDS011;3606;52.930;8.644;2023-10-19T14:35:13;10.90;;;8.57;;
7128;SDS011;3606;52.930;8.644;2023-10-19T14:37:43;15.70;;;9.83;;
7128;SDS011;3606;52.930;8.644;2023-10-19T14:40:11;12.37;;;9.67;;
7128;SDS011;3606;52.930;8.644;2023-10-19T14:42:39;15.73;;;9.73;;
7128;SDS011;3606;52.930;8.644;2023-10-19T14:45:09;16.07;;;9.87;;
7128;SDS011;3606;52.930;8.644;2023-10-19T14:47:47;13.23;;;9.90;;
7128;SDS011;3606;52.930;8.644;2023-10-19T14:50:14;13.60;;;10.03;;
7128;SDS011;3606;52.930;8.644;2023-10-19T14:52:40;14.00;;;10.33;;
7128;SDS011;3606;52.930;8.644;2023-10-19T14:55:07;13.77;;;9.23;;
7128;SDS011;3606;52.930;8.644;2023-10-19T14:57:34;15.53;;;10.13;;
7128;SDS011;3606;52.930;8.644;2023-10-19T15:00:02;16.57;;;10.27;;
7128;SDS011;3606;52.930;8.644;2023-10-19T15:02:55;16.30;;;9.50;;
7128;SDS011;3606;52.930;8.644;2023-10-19T15:05:22;14.43;;;9.17;;
7128;SDS011;3606;52.930;8.644;2023-10-19T15:07:50;12.43;;;9.03;;
7128;SDS011;3606;52.930;8.644;2023-10-19T15:10:24;13.90;;;9.80;;
7128;SDS011;3606;52.930;8.644;2023-10-19T15:12:51;13.53;;;9.60;;
7128;SDS011;3606;52.930;8.644;2023-10-19T15:15:17;12.47;;;8.67;;
7128;SDS011;3606;52.930;8.644;2023-10-19T15:17:46;14.13;;;9.47;;
7128;SDS011;3606;52.930;8.644;2023-10-19T15:20:15;12.10;;;9.03;;
7128;SDS011;3606;52.930;8.644;2023-10-19T15:22:41;11.77;;;8.00;;
7128;SDS011;3606;52.930;8.644;2023-10-19T15:25:09;12.43;;;8.40;;
7128;SDS011;3606;52.930;8.644;2023-10-19T15:27:42;12.53;;;8.53;;
7128;SDS011;3606;52.930;8.644;2023-10-19T15:30:09;11.00;;;7.80;;
7128;SDS011;3606;52.930;8.644;2023-10-19T15:32:36;10.40;;;7.77;;